Latest Weather Observations for Swan Island

IDT60801

Issued at 6:01 pm EST Tuesday 21 April 2015 (issued every 30 minutes, with the page automatically refreshed every 10 minutes)

About weather observations | Map of weather stations | Latest weather observations for TAS | Other Formats
Station Details ID: 092123 Name: SWAN ISLAND Lat: -40.73 Lon: 148.12 Height: 15.0 m
Data from the previous 72 hours. | See also: Recent months at Swan Island
Date/Time
EST
Temp
°C
App
Temp
°C
Dew
Point
Rel
Hum
%
Delta-T
°C
Wind Press
QNH
hPa
Press
MSL
hPa
Rain
since 9 am
mm
Dir
 
Spd
km/h
Gust
km/h
Spd
kts
Gust
kts
21/06:00pm 14.8 - - - - SE 11 15 6 8 1031.8 1031.8 0.0
21/05:30pm 14.9 - - - - ESE 11 15 6 8 1031.9 1031.9 0.0
21/05:00pm 15.0 - - - - ESE 13 17 7 9 1031.8 1031.8 0.0
21/04:30pm 15.3 - - - - ESE 15 19 8 10 1031.8 1031.8 0.0
21/04:00pm 15.5 - - - - ESE 17 22 9 12 1031.7 1031.7 0.0
21/03:30pm 15.9 - - - - ESE 19 26 10 14 1031.5 1031.5 0.0
21/03:00pm 16.0 - - - - ESE 20 24 11 13 1031.5 1031.5 0.0
21/02:30pm 16.3 - - - - ESE 20 24 11 13 1031.3 1031.3 0.0
21/02:00pm 16.7 - - - - ESE 19 22 10 12 1031.2 1031.2 0.0
21/01:30pm 16.8 - - - - E 17 20 9 11 1031.4 1031.4 0.0
21/01:00pm 17.1 - - - - ESE 17 20 9 11 1031.6 1031.6 0.0
21/12:30pm 17.5 - - - - E 13 17 7 9 1032.1 1032.1 0.0
21/12:00pm 17.0 - - - - E 11 15 6 8 1032.5 1032.5 0.0
21/11:30am 16.8 - - - - ESE 9 13 5 7 1032.8 1032.8 0.0
21/11:00am 15.7 - - - - SE 9 11 5 6 1032.9 1032.9 0.0
21/10:30am 15.3 - - - - SE 9 11 5 6 1033.3 1033.3 0.0
21/10:00am 14.5 - - - - SSE 11 15 6 8 1033.5 1033.5 0.0
21/09:30am 13.7 - - - - S 13 17 7 9 1033.6 1033.6 0.0
21/09:00am 13.2 - - - - S 9 15 5 8 1033.8 1033.8 0.0
21/08:30am 10.6 - - - - SSW 9 15 5 8 1033.8 1033.8 0.0
21/08:00am 10.8 - - - - S 9 13 5 7 1033.9 1033.9 0.0
21/07:30am 10.4 - - - - SSW 11 15 6 8 1033.6 1033.6 0.0
21/07:00am 10.0 - - - - S 11 15 6 8 1033.3 1033.3 0.0
21/06:30am 9.8 - - - - SSW 9 13 5 7 1033.2 1033.2 0.0
21/06:00am 9.6 - - - - SSW 11 13 6 7 1033.3 1033.3 0.0
21/05:30am 9.5 - - - - SSW 11 15 6 8 1033.3 1033.3 0.0
21/05:00am 9.3 - - - - SSW 11 13 6 7 1033.2 1033.2 0.0
21/04:30am 9.2 - - - - SSW 11 13 6 7 1033.2 1033.2 0.0
21/04:00am 9.3 - - - - SSW 11 15 6 8 1033.2 1033.2 0.0
21/03:30am 9.4 - - - - SSW 11 13 6 7 1033.3 1033.3 0.0
21/03:00am 9.0 - - - - SSW 11 13 6 7 1033.6 1033.6 0.0
21/02:30am 9.2 - - - - S 9 9 5 5 1033.9 1033.9 0.0
21/02:00am 9.5 - - - - SSW 7 9 4 5 1034.2 1034.2 0.0
21/01:30am 9.7 - - - - S 7 9 4 5 1034.3 1034.3 0.0
21/01:00am 9.7 - - - - S 9 11 5 6 1034.2 1034.2 0.0
21/12:30am 10.0 - - - - S 9 13 5 7 1034.3 1034.3 0.0
21/12:00am 10.3 - - - - SSW 6 9 3 5 1034.3 1034.3 0.0
 
Date/Time
EST
Temp
°C
App
Temp
°C
Dew
Point
Rel
Hum
%
Delta-T
°C
Wind Press
QNH
hPa
Press
MSL
hPa
Rain
since 9 am
mm
Dir
 
Spd
km/h
Gust
km/h
Spd
kts
Gust
kts
20/11:30pm 10.5 - - - - SSW 7 9 4 5 1034.4 1034.4 0.0
20/11:00pm 10.2 - - - - SW 7 11 4 6 1034.6 1034.6 0.0
20/10:30pm 10.8 - - - - SSW 7 9 4 5 1034.7 1034.7 0.0
20/10:00pm 10.6 - - - - SSW 7 11 4 6 1034.9 1034.9 0.0
20/09:30pm 10.6 - - - - SSW 7 9 4 5 1035.0 1035.0 0.0
20/09:00pm 10.4 - - - - SW 9 13 5 7 1035.0 1035.0 0.0
20/08:30pm 10.2 - - - - SW 9 11 5 6 1034.9 1034.9 0.0
20/08:00pm 10.4 - - - - SW 7 9 4 5 1034.8 1034.8 0.0
20/07:30pm 10.1 - - - - WSW 9 11 5 6 1034.9 1034.9 0.0
20/07:00pm 11.0 - - - - W 7 11 4 6 1034.9 1034.9 0.0
20/06:30pm 11.4 - - - - WNW 9 15 5 8 1034.7 1034.7 0.0
20/06:00pm 11.4 - - - - W 11 17 6 9 1034.4 1034.4 0.0
20/05:30pm 11.8 - - - - WNW 11 17 6 9 1034.3 1034.3 0.0
20/05:00pm 12.4 - - - - WNW 13 19 7 10 1034.0 1034.0 0.0
20/04:30pm 13.2 - - - - WNW 13 19 7 10 1034.0 1034.0 0.0
20/04:00pm 13.6 - - - - NW 15 20 8 11 1034.0 1034.0 0.0
20/03:30pm 14.0 - - - - NW 13 20 7 11 1034.2 1034.2 0.0
20/03:00pm 14.5 - - - - WNW 13 20 7 11 1034.3 1034.3 0.0
20/02:30pm 14.7 - - - - NW 13 19 7 10 1034.4 1034.4 0.0
20/02:00pm 14.0 - - - - NW 11 17 6 9 1034.6 1034.6 0.0
20/01:30pm 14.4 - - - - NW 13 17 7 9 1034.9 1034.9 0.0
20/01:00pm 14.9 - - - - NW 11 17 6 9 1035.2 1035.2 0.0
20/12:30pm 14.6 - - - - NW 13 17 7 9 1035.7 1035.7 0.0
20/12:00pm 14.2 - - - - NW 9 15 5 8 1036.1 1036.1 0.0
20/11:30am 14.2 - - - - NW 9 11 5 6 1036.6 1036.6 0.0
20/11:00am 14.5 - - - - E 6 9 3 5 1036.8 1036.8 0.0
20/10:30am 13.1 - - - - SE 7 9 4 5 1036.8 1036.8 0.0
20/10:00am 12.9 - - - - SSE 7 9 4 5 1036.9 1036.9 0.0
20/09:30am 12.4 - - - - S 7 9 4 5 1036.9 1036.9 0.0
20/09:00am 11.1 - - - - SSE 7 9 4 5 1036.8 1036.8 0.0
20/08:30am 9.6 - - - - SSW 7 11 4 6 1036.6 1036.6 0.0
20/08:00am 10.2 - - - - SSE 7 9 4 5 1036.4 1036.4 0.0
20/07:30am 9.2 - - - - SSW 7 9 4 5 1036.1 1036.1 0.0
20/07:00am 8.1 - - - - S 7 9 4 5 1035.7 1035.7 0.0
20/06:30am 7.9 - - - - SSE 9 13 5 7 1035.6 1035.6 0.0
20/06:00am 8.1 - - - - S 9 11 5 6 1035.4 1035.4 0.0
20/05:30am 7.7 - - - - S 9 13 5 7 1035.1 1035.1 0.0
20/05:00am 7.9 - - - - S 9 13 5 7 1035.1 1035.1 0.0
20/04:30am 8.5 - - - - S 9 15 5 8 1034.8 1034.8 0.0
20/04:00am 8.3 - - - - S 9 15 5 8 1034.5 1034.5 0.0
20/03:30am 9.1 - - - - S 11 17 6 9 1034.4 1034.4 0.0
20/03:00am 9.6 - - - - SSW 7 15 4 8 1034.3 1034.3 0.0
20/02:30am 10.1 - - - - SSW 11 17 6 9 1034.4 1034.4 0.0
20/02:00am 9.5 - - - - SSW 11 19 6 10 1034.4 1034.4 0.0
20/01:30am 9.2 - - - - SW 11 15 6 8 1034.5 1034.5 0.0
20/01:00am 9.7 - - - - SSW 11 20 6 11 1034.3 1034.3 0.0
20/12:30am 8.8 - - - - SW 11 20 6 11 1034.2 1034.2 0.0
20/12:00am 9.3 - - - - SSW 11 17 6 9 1034.2 1034.2 0.0
 
Date/Time
EST
Temp
°C
App
Temp
°C
Dew
Point
Rel
Hum
%
Delta-T
°C
Wind Press
QNH
hPa
Press
MSL
hPa
Rain
since 9 am
mm
Dir
 
Spd
km/h
Gust
km/h
Spd
kts
Gust
kts
19/11:30pm 10.2 - - - - SSW 13 19 7 10 1034.1 1034.1 0.0
19/11:00pm 10.3 - - - - S 15 22 8 12 1033.9 1033.9 0.0
19/10:30pm 10.1 - - - - SSW 13 20 7 11 1033.9 1033.9 0.0
19/10:00pm 10.5 - - - - S 15 20 8 11 1033.6 1033.6 0.0
19/09:30pm 10.2 - - - - S 15 20 8 11 1033.4 1033.4 0.0
19/09:00pm 10.6 - - - - S 17 24 9 13 1032.8 1032.8 0.0
19/08:30pm 10.5 - - - - S 15 26 8 14 1032.3 1032.3 0.0
19/08:00pm 10.9 - - - - SSE 22 28 12 15 1031.8 1031.8 0.0
19/07:30pm 11.0 - - - - SSE 26 35 14 19 1031.3 1031.3 0.0
19/07:00pm 11.3 - - - - SSE 28 39 15 21 1030.8 1030.8 0.0
19/06:30pm 11.5 - - - - SSE 28 35 15 19 1030.2 1030.2 0.0
19/06:00pm 11.8 - - - - SSE 30 37 16 20 1029.5 1029.5 0.0
19/05:30pm 12.2 - - - - SSE 28 43 15 23 1028.7 1028.7 0.0
19/05:00pm 12.1 - - - - SSE 26 35 14 19 1028.1 1028.1 0.0
19/04:30pm 12.3 - - - - SSE 13 22 7 12 1027.6 1027.6 0.0
19/04:00pm 11.6 - - - - S 4 7 2 4 1027.3 1027.3 0.0
19/03:30pm 11.5 - - - - SW 15 30 8 16 1026.9 1026.9 0.0
19/03:00pm 13.2 - - - - SSE 13 22 7 12 1026.4 1026.4 0.0
19/02:30pm 13.7 - - - - SSE 15 20 8 11 1025.8 1025.8 0.0
19/02:00pm 14.6 - - - - SSE 20 26 11 14 1025.4 1025.4 0.0
19/01:30pm 14.5 - - - - SSE 17 22 9 12 1025.0 1025.0 0.0
19/01:00pm 15.0 - - - - SSE 17 24 9 13 1024.5 1024.5 0.0
19/12:30pm 14.5 - - - - SSE 19 26 10 14 1024.4 1024.4 0.0
19/12:00pm 13.9 - - - - SSE 19 28 10 15 1024.4 1024.4 0.0
19/11:30am 13.6 - - - - SSE 19 28 10 15 1024.0 1024.0 0.0
19/11:00am 13.7 - - - - SSE 24 32 13 17 1023.8 1023.8 0.0
19/10:30am 13.5 - - - - S 17 24 9 13 1023.3 1023.3 0.0
19/10:00am 13.2 - - - - S 17 26 9 14 1023.0 1023.0 0.0
19/09:30am 12.8 - - - - S 19 30 10 16 1022.4 1022.4 0.0
19/09:00am 12.1 - - - - S 20 33 11 18 1021.6 1021.5 0.2
19/08:30am 11.8 - - - - S 26 35 14 19 1021.2 1021.1 0.2
19/08:00am 11.2 - - - - S 24 32 13 17 1020.2 1020.1 0.2
19/07:30am 11.0 - - - - S 20 28 11 15 1019.3 1019.2 0.2
19/07:00am 10.3 - - - - S 19 28 10 15 1018.3 1018.2 0.2
19/06:30am 9.8 - - - - S 15 24 8 13 1017.4 1017.3 0.2
19/06:00am 9.1 - - - - SSW 9 13 5 7 1016.6 1016.5 0.2
19/05:30am 9.1 - - - - SW 9 13 5 7 1015.7 1015.6 0.2
19/05:00am 9.6 - - - - WSW 11 17 6 9 1014.9 1014.8 0.2
19/04:30am 9.9 - - - - WSW 15 22 8 12 1014.2 1014.1 0.2
19/04:00am 10.1 - - - - WSW 9 15 5 8 1013.8 1013.7 0.2
19/03:30am 10.2 - - - - WSW 13 19 7 10 1013.3 1013.2 0.2
19/03:00am 10.8 - - - - WSW 13 17 7 9 1013.2 1013.1 0.2
19/02:30am 10.9 - - - - WSW 15 24 8 13 1012.8 1012.7 0.2
19/02:00am 11.8 - - - - WSW 17 26 9 14 1012.7 1012.6 0.2
19/01:30am 12.3 - - - - WSW 19 26 10 14 1012.7 1012.6 0.2
19/01:00am 12.9 - - - - WSW 22 33 12 18 1012.2 1012.1 0.2
19/12:30am 13.4 - - - - W 28 41 15 22 1012.0 1011.9 0.2
19/12:00am 13.4 - - - - W 26 39 14 21 1011.5 1011.4 0.2
 
Date/Time
EST
Temp
°C
App
Temp
°C
Dew
Point
Rel
Hum
%
Delta-T
°C
Wind Press
QNH
hPa
Press
MSL
hPa
Rain
since 9 am
mm
Dir
 
Spd
km/h
Gust
km/h
Spd
kts
Gust
kts
18/11:30pm 13.8 - - - - W 33 46 18 25 1011.5 1011.4 0.2
18/11:00pm 13.7 - - - - W 35 50 19 27 1011.3 1011.2 0.2
18/10:30pm 13.8 - - - - W 41 52 22 28 1010.9 1010.8 0.2
18/10:00pm 13.9 - - - - W 44 57 24 31 1010.2 1010.2 0.2
18/09:30pm 14.0 - - - - WNW 33 50 18 27 1010.0 1010.0 0.2
18/09:08pm 14.4 - - - - WNW 30 48 16 26 1009.9 1009.9 0.2
18/09:00pm 14.3 - - - - W 37 50 20 27 1009.8 1009.8 0.2
18/08:30pm 14.8 - - - - W 33 46 18 25 1009.2 1009.2 0.2
18/08:00pm 14.9 - - - - W 37 50 20 27 1008.8 1008.8 0.2
18/07:34pm 14.7 - - - - W 48 70 26 38 1008.3 1008.3 0.2
18/07:30pm 14.6 - - - - W 52 70 28 38 1008.1 1008.1 0.2
18/07:28pm 14.6 - - - - W 50 70 27 38 1008.0 1008.0 0.2
18/07:11pm 13.8 - - - - WNW 39 57 21 31 1007.9 1007.9 0.2
18/07:09pm 14.7 - - - - NW 41 54 22 29 1007.9 1007.9 0.2
18/07:00pm 15.6 - - - - NW 48 59 26 32 1007.6 1007.6 0.0
18/06:30pm 16.1 - - - - NW 43 52 23 28 1007.6 1007.6 0.0

Other Formats:

Comma delimited format used in spreadsheet applications
http://www.bom.gov.au/fwo/IDT60801/IDT60801.95985.axf

JavaScript Object Notation format (JSON) in row-major order
http://www.bom.gov.au/fwo/IDT60801/IDT60801.95985.json